Pagrindinis puslapis
METAR-TAF:

METAR-TAF

Oro uostai :

Porto Alegrė, Pietų Rio Grandė, Brazilija

platuma: 30-01S, ilguma: 051-13W, Aukštis: 47 m

Dabartinis oras

Ataskaita buvo paskelbta 46 minutes, ne 01:00 UTC
Vėjas 9 kt iš Rytų/Pietryčių
Temperatūra 19°C
Drėgmė 88%
Slėgis 1020 hPa
Matomumas 10 km arba daugiau
nėra debesų žemiau 1500 m ir nėra kamuolinių lietaus debesų

METAR: SBCO 220100Z 11009KT CAVOK 19/17 Q1020

Laikas: 22:46 (01:46 UTC)

Prognozė

Ataskaita buvo paskelbta 4 valandos ir 46 minutes, ne 21:00 UTC
Prognozė galioja nuo 22 metu 00 UTC su 22 metu 12 UTC
Vėjas 16 kt iš Rytų
Matomumas 10 km arba daugiau
Išsisklaidę debesys ne aukštis 1200 ft
Tapsmas
nuo 22 metu 00 UTC su 22 metu 02 UTC
Vėjas 8 kt iš Rytų
Tikimybė 30%
nuo 22 metu 08 UTC su 22 metu 10 UTC
Matomumas: 5000 m
rūkana

TAF: SBCO 212100Z 2200/2212 10016KT 9999 SCT012 TN16/2208Z TX22/2212Z BECMG 2200/2202 10008KT PROB30 2208/2210 5000 BR RMK PEP

Orai ataskaitas ir orų prognozės (METAR, TAF).

turimą stotys yra geltonos ir raudonos taškus žemėlapyje.

Perkelti pele per norėdami pamatyti stoties vardą.

Tada spustelėkite, norėdami matyti oro stebėjimo ir prognozės.

Norėdami pakeisti žemėlapį: spustelėkite ant žalios mygtukų su juodo kryžiaus žemyn,; žalią mygtuką su brūkšneliu, jei norite nutolinti; arba žalių rodyklių gretimoms žemėlapius.


METAR-TAF: